createdAt,value
2018-06-10T00:01:44.284Z,0
2018-06-10T00:11:44.280Z,0
2018-06-10T00:21:44.349Z,0
2018-06-10T00:31:44.264Z,0
2018-06-10T00:41:44.240Z,0
2018-06-10T00:51:44.298Z,0
2018-06-10T01:01:44.229Z,0
2018-06-10T01:11:44.218Z,0
2018-06-10T01:21:44.289Z,0
2018-06-10T01:31:44.278Z,0
2018-06-10T01:41:44.313Z,0
2018-06-10T01:51:44.274Z,0
2018-06-10T02:01:44.216Z,0
2018-06-10T02:11:44.232Z,0
2018-06-10T02:21:44.262Z,0
2018-06-10T02:31:44.324Z,0
2018-06-10T02:41:44.263Z,0
2018-06-10T02:51:44.225Z,4
2018-06-10T03:01:44.280Z,8
2018-06-10T03:11:44.258Z,12
2018-06-10T03:21:44.231Z,32
2018-06-10T03:31:44.290Z,72
2018-06-10T03:41:44.221Z,104
2018-06-10T03:51:44.341Z,196
2018-06-10T04:01:44.329Z,336
2018-06-10T04:11:44.327Z,480
2018-06-10T04:21:44.313Z,588
2018-06-10T04:31:44.295Z,1012
2018-06-10T04:41:44.196Z,1628
2018-06-10T04:51:44.323Z,2076
2018-06-10T05:01:44.271Z,2476
2018-06-10T05:11:44.309Z,3020
2018-06-10T05:21:44.284Z,2696
2018-06-10T05:31:44.254Z,3464
2018-06-10T05:41:44.289Z,4060
2018-06-10T05:51:44.284Z,4236
2018-06-10T06:01:44.370Z,3824
2018-06-10T06:11:44.362Z,4120
2018-06-10T06:21:44.193Z,3504
2018-06-10T06:31:44.285Z,3424
2018-06-10T06:41:44.228Z,5228
2018-06-10T06:51:45.241Z,7432
2018-06-10T07:01:44.348Z,11140
2018-06-10T07:11:44.264Z,11716
2018-06-10T07:21:44.345Z,14956
2018-06-10T07:31:44.306Z,14268
2018-06-10T07:41:44.421Z,19552
2018-06-10T07:51:44.379Z,21696
2018-06-10T08:01:44.280Z,19904
2018-06-10T08:11:44.348Z,20576
2018-06-10T08:21:44.310Z,17168
2018-06-10T08:31:44.423Z,15916
2018-06-10T08:41:44.308Z,17788
2018-06-10T08:51:44.303Z,16560
2018-06-10T09:01:44.331Z,21344
2018-06-10T09:11:44.321Z,19488
2018-06-10T09:21:44.411Z,23648
2018-06-10T09:31:44.322Z,11060
2018-06-10T09:41:44.301Z,23232
2018-06-10T09:51:44.449Z,20032
2018-06-10T10:01:44.297Z,23712
2018-06-10T10:11:44.418Z,23936
2018-06-10T10:21:44.405Z,27584
2018-06-10T10:31:44.359Z,26688
2018-06-10T10:41:44.382Z,24544
2018-06-10T10:51:44.364Z,26304
2018-06-10T11:01:44.352Z,24832
2018-06-10T11:11:44.358Z,24192
2018-06-10T11:21:44.258Z,23072
2018-06-10T11:31:44.388Z,12500
2018-06-10T11:41:44.354Z,14324
2018-06-10T11:51:44.466Z,17828
2018-06-10T12:01:44.373Z,16880
2018-06-10T12:11:44.478Z,18272
2018-06-10T12:21:44.363Z,13972
2018-06-10T12:31:44.331Z,20288
2018-06-10T12:41:44.396Z,17508
2018-06-10T12:51:44.343Z,20320
2018-06-10T13:01:44.432Z,16160
2018-06-10T13:11:44.383Z,8396
2018-06-10T13:21:44.335Z,12588
2018-06-10T13:31:44.419Z,15420
2018-06-10T13:41:44.483Z,20160
2018-06-10T13:51:44.451Z,17292
2018-06-10T14:01:44.363Z,11272
2018-06-10T14:11:44.328Z,6844
2018-06-10T14:21:44.426Z,6332
2018-06-10T14:31:44.394Z,9512
2018-06-10T14:41:44.451Z,7660
2018-06-10T14:51:44.394Z,5752
2018-06-10T15:01:44.375Z,8412
2018-06-10T15:11:44.461Z,12364
2018-06-10T15:21:44.335Z,9572
2018-06-10T15:31:44.473Z,8536
2018-06-10T15:41:44.420Z,11028
2018-06-10T15:51:44.342Z,7600
2018-06-10T16:01:44.412Z,7404
2018-06-10T16:11:44.455Z,4708
2018-06-10T16:21:44.478Z,4504
2018-06-10T16:31:44.430Z,4272
2018-06-10T16:41:44.550Z,3980
2018-06-10T16:51:44.498Z,4100
2018-06-10T17:01:44.492Z,4024
2018-06-10T17:11:44.557Z,3948
2018-06-10T17:21:44.507Z,3780
2018-06-10T17:31:44.497Z,3464
2018-06-10T17:41:44.402Z,3528
2018-06-10T17:51:44.432Z,3736
2018-06-10T18:01:45.114Z,3336
2018-06-10T18:11:45.513Z,3004
2018-06-10T18:21:45.054Z,2736
2018-06-10T18:31:44.479Z,2616
2018-06-10T18:41:44.461Z,2412
2018-06-10T18:51:44.513Z,1976
2018-06-10T19:01:44.594Z,1716
2018-06-10T19:11:44.619Z,1356
2018-06-10T19:21:45.078Z,932
2018-06-10T19:31:44.542Z,580
2018-06-10T19:41:45.536Z,308
2018-06-10T19:51:44.855Z,148
2018-06-10T20:01:44.597Z,56
2018-06-10T20:11:45.461Z,20
2018-06-10T20:21:44.587Z,4
2018-06-10T20:31:45.740Z,0
2018-06-10T20:41:44.847Z,0
2018-06-10T20:51:44.546Z,4
2018-06-10T21:01:44.788Z,0
2018-06-10T21:11:44.812Z,0
2018-06-10T21:21:44.613Z,0
2018-06-10T21:31:44.723Z,0
2018-06-10T21:41:44.881Z,0
2018-06-10T21:51:44.530Z,0
2018-06-10T22:01:44.512Z,0
2018-06-10T22:11:44.706Z,0
2018-06-10T22:21:44.582Z,0
2018-06-10T22:31:44.480Z,0
2018-06-10T22:41:44.533Z,0
2018-06-10T22:51:44.723Z,0
2018-06-10T23:01:44.422Z,0
2018-06-10T23:11:44.637Z,0
2018-06-10T23:21:44.609Z,0
2018-06-10T23:31:44.546Z,0
2018-06-10T23:41:44.589Z,0
2018-06-10T23:51:44.424Z,0
